createdAt,value
2023-03-11T00:00:00.431Z,2.22
2023-03-11T00:02:32.216Z,3.17
2023-03-11T00:05:04.415Z,2.63
2023-03-11T00:07:37.719Z,3.55
2023-03-11T00:10:33.576Z,2.90
2023-03-11T00:13:07.317Z,4.80
2023-03-11T00:15:39.869Z,3.87
2023-03-11T00:18:11.748Z,2.97
2023-03-11T00:20:45.679Z,1.90
2023-03-11T00:23:17.405Z,0.80
2023-03-11T00:25:49.119Z,5.03
2023-03-11T00:28:25.266Z,0.70
2023-03-11T00:30:57.042Z,1.48
2023-03-11T00:33:28.783Z,0.77
2023-03-11T00:36:00.503Z,5.35
2023-03-11T00:38:32.482Z,2.22
2023-03-11T00:41:04.460Z,1.38
2023-03-11T00:43:36.380Z,1.52
2023-03-11T00:46:10.195Z,1.70
2023-03-11T00:48:41.936Z,1.70
2023-03-11T00:51:15.336Z,3.17
2023-03-11T00:53:47.172Z,1.60
2023-03-11T00:56:19.072Z,2.58
2023-03-11T00:58:50.828Z,1.75
2023-03-11T01:01:23.512Z,2.30
2023-03-11T01:03:55.550Z,1.75
2023-03-11T01:06:32.741Z,1.42
2023-03-11T01:09:11.090Z,2.35
2023-03-11T01:11:42.863Z,1.23
2023-03-11T01:14:14.793Z,1.38
2023-03-11T01:16:46.659Z,1.90
2023-03-11T01:19:20.924Z,1.80
2023-03-11T01:21:52.848Z,1.13
2023-03-11T01:24:24.630Z,1.55
2023-03-11T01:26:56.429Z,1.42
2023-03-11T01:29:29.670Z,1.55
2023-03-11T01:32:01.344Z,1.52
2023-03-11T01:34:35.773Z,1.73
2023-03-11T01:37:07.503Z,1.10
2023-03-11T01:39:39.218Z,1.38
2023-03-11T01:42:15.026Z,2.17
2023-03-11T01:44:47.344Z,1.27
2023-03-11T01:47:39.778Z,1.13
2023-03-11T01:50:13.981Z,1.73
2023-03-11T01:52:47.792Z,1.58
2023-03-11T01:55:20.432Z,1.58
2023-03-11T01:57:54.007Z,1.50
2023-03-11T02:00:26.772Z,1.48
2023-03-11T02:03:02.317Z,1.60
2023-03-11T02:05:35.347Z,2.83
2023-03-11T02:08:08.035Z,1.63
2023-03-11T02:10:41.917Z,1.77
2023-03-11T02:13:13.729Z,2.37
2023-03-11T02:15:46.429Z,2.20
2023-03-11T02:18:20.404Z,2.00
2023-03-11T02:21:18.781Z,2.33
2023-03-11T02:24:13.418Z,2.10
2023-03-11T02:26:55.842Z,1.70
2023-03-11T02:29:29.586Z,2.92
2023-03-11T02:32:06.580Z,1.98
2023-03-11T02:34:39.766Z,1.98
2023-03-11T02:37:14.860Z,2.15
2023-03-11T02:39:54.795Z,2.30
2023-03-11T02:42:32.544Z,2.30
2023-03-11T02:45:30.751Z,2.38
2023-03-11T02:48:03.278Z,3.08
2023-03-11T02:50:37.334Z,2.97
2023-03-11T02:53:10.168Z,1.92
2023-03-11T02:55:42.096Z,2.58
2023-03-11T02:58:13.957Z,3.38
2023-03-11T03:00:45.838Z,2.75
2023-03-11T03:03:17.794Z,3.25
2023-03-11T03:05:50.810Z,2.88
2023-03-11T03:08:22.709Z,2.67
2023-03-11T03:10:54.468Z,2.50
2023-03-11T03:13:27.481Z,2.45
2023-03-11T03:16:00.817Z,2.65
2023-03-11T03:18:32.708Z,2.60
2023-03-11T03:21:05.521Z,2.53
2023-03-11T03:23:38.210Z,2.80
2023-03-11T03:26:13.772Z,2.40
2023-03-11T03:28:47.238Z,6.35
2023-03-11T03:31:19.493Z,2.42
2023-03-11T03:33:51.336Z,2.55
2023-03-11T03:36:23.859Z,2.38
2023-03-11T03:39:01.555Z,1.92
2023-03-11T03:41:37.696Z,2.40
2023-03-11T03:44:10.328Z,2.90
2023-03-11T03:46:42.449Z,1.88
2023-03-11T03:49:14.909Z,2.28
2023-03-11T03:51:46.985Z,1.70
2023-03-11T03:54:29.000Z,1.98
2023-03-11T03:57:01.111Z,2.10
2023-03-11T03:59:35.127Z,1.83
2023-03-11T04:02:09.615Z,3.88
2023-03-11T04:04:41.642Z,1.63
2023-03-11T04:07:15.624Z,1.45
2023-03-11T04:09:47.533Z,2.28
2023-03-11T04:12:20.377Z,1.00
2023-03-11T04:14:52.263Z,1.52
2023-03-11T04:17:24.215Z,2.38
2023-03-11T04:19:57.449Z,1.15
2023-03-11T04:22:29.459Z,1.55
2023-03-11T04:25:01.317Z,1.10
2023-03-11T04:27:34.890Z,2.45
2023-03-11T04:30:09.640Z,1.55
2023-03-11T04:32:41.827Z,1.52
2023-03-11T04:35:14.238Z,1.27
2023-03-11T04:37:46.049Z,1.63
2023-03-11T04:40:18.587Z,1.90
2023-03-11T04:42:53.046Z,1.77
2023-03-11T04:45:24.995Z,2.72
2023-03-11T04:48:01.181Z,2.53
2023-03-11T04:50:35.329Z,2.00
2023-03-11T04:53:07.215Z,3.10
2023-03-11T04:55:40.047Z,1.30
2023-03-11T04:58:11.814Z,1.98
2023-03-11T05:00:44.539Z,2.25
2023-03-11T05:03:19.083Z,1.95
2023-03-11T05:05:53.192Z,1.80
2023-03-11T05:10:58.437Z,4.40
2023-03-11T05:13:30.238Z,1.75
2023-03-11T05:16:02.509Z,2.00
2023-03-11T05:18:34.365Z,1.98
2023-03-11T05:21:06.548Z,1.80
2023-03-11T05:23:40.800Z,1.88
2023-03-11T05:26:12.623Z,2.58
2023-03-11T05:28:47.084Z,2.15
2023-03-11T05:31:18.970Z,2.22
2023-03-11T05:33:50.739Z,2.17
2023-03-11T05:36:22.562Z,2.13
2023-03-11T05:38:54.481Z,2.05
2023-03-11T05:41:29.307Z,1.33
2023-03-11T05:46:33.797Z,2.10
2023-03-11T05:49:06.718Z,1.45
2023-03-11T05:51:38.541Z,2.28
2023-03-11T05:54:15.057Z,2.05
2023-03-11T05:56:50.220Z,1.98
2023-03-11T05:59:24.007Z,1.67
2023-03-11T06:02:02.081Z,2.28
2023-03-11T06:04:34.129Z,1.98
2023-03-11T06:07:12.207Z,2.22
2023-03-11T06:09:44.659Z,2.67
2023-03-11T06:12:21.102Z,1.75
2023-03-11T06:15:09.351Z,1.63
2023-03-11T06:17:42.273Z,1.75
2023-03-11T06:20:14.383Z,4.43
2023-03-11T06:22:51.272Z,1.85
2023-03-11T06:25:26.003Z,2.42
2023-03-11T06:27:59.249Z,2.25
2023-03-11T06:30:32.512Z,1.60
2023-03-11T06:33:16.492Z,1.52
2023-03-11T06:35:59.658Z,1.98
2023-03-11T06:38:32.320Z,2.20
2023-03-11T06:41:05.999Z,2.00
2023-03-11T06:43:39.805Z,3.08
2023-03-11T06:46:16.150Z,1.83
2023-03-11T06:48:52.441Z,2.72
2023-03-11T06:51:25.835Z,1.55
2023-03-11T06:53:57.635Z,1.50
2023-03-11T06:56:30.621Z,3.90
2023-03-11T06:59:07.685Z,1.38
2023-03-11T07:01:40.130Z,2.10
2023-03-11T07:04:13.844Z,1.98
2023-03-11T07:06:46.916Z,1.45
2023-03-11T07:09:25.357Z,2.58
2023-03-11T07:11:57.429Z,2.50
2023-03-11T07:14:34.993Z,2.13
2023-03-11T07:17:06.737Z,1.98
2023-03-11T07:19:43.755Z,2.95
2023-03-11T07:22:15.589Z,4.03
2023-03-11T07:24:50.526Z,2.05
2023-03-11T07:29:54.962Z,1.77
2023-03-11T07:32:26.674Z,3.17
2023-03-11T07:34:58.392Z,3.70
2023-03-11T07:37:30.105Z,2.70
2023-03-11T07:40:01.987Z,2.55
2023-03-11T07:42:34.890Z,3.90
2023-03-11T07:45:08.072Z,2.63
2023-03-11T07:47:39.859Z,3.63
2023-03-11T07:50:12.135Z,3.40
2023-03-11T07:52:44.199Z,4.03
2023-03-11T07:55:16.095Z,2.90
2023-03-11T07:57:49.269Z,2.55
2023-03-11T08:00:21.436Z,3.92
2023-03-11T08:02:53.593Z,2.47
2023-03-11T08:05:25.339Z,2.50
2023-03-11T08:07:57.020Z,3.05
2023-03-11T08:10:28.835Z,3.95
2023-03-11T08:13:00.632Z,2.15
2023-03-11T08:15:32.655Z,2.33
2023-03-11T08:18:05.275Z,2.30
2023-03-11T08:20:39.989Z,2.97
2023-03-11T08:23:11.893Z,3.20
2023-03-11T08:25:43.663Z,2.70
2023-03-11T08:28:16.174Z,3.10
2023-03-11T08:30:47.958Z,3.05
2023-03-11T08:33:19.937Z,2.78
2023-03-11T08:35:51.796Z,2.05
2023-03-11T08:38:23.549Z,3.53
2023-03-11T08:40:55.284Z,3.75
2023-03-11T08:43:27.172Z,2.08
2023-03-11T08:46:04.000Z,2.58
2023-03-11T08:48:37.872Z,3.53
2023-03-11T08:51:13.526Z,3.70
2023-03-11T08:53:45.533Z,3.28
2023-03-11T08:56:17.476Z,2.88
2023-03-11T08:58:50.839Z,2.28
2023-03-11T09:01:23.749Z,3.75
2023-03-11T09:03:55.703Z,3.40
2023-03-11T09:06:30.414Z,2.70
2023-03-11T09:11:37.452Z,3.05
2023-03-11T09:14:09.225Z,3.72
2023-03-11T09:16:41.150Z,5.15
2023-03-11T09:19:12.889Z,3.65
2023-03-11T09:21:44.668Z,5.03
2023-03-11T09:24:16.368Z,5.32
2023-03-11T09:26:48.132Z,2.92
2023-03-11T09:29:19.881Z,2.72
2023-03-11T09:31:51.816Z,2.17
2023-03-11T09:34:23.653Z,3.67
2023-03-11T09:36:55.411Z,3.13
2023-03-11T09:39:27.251Z,3.03
2023-03-11T09:42:15.216Z,5.15
2023-03-11T09:44:59.589Z,5.35
2023-03-11T09:47:39.221Z,5.73
2023-03-11T09:50:20.484Z,3.33
2023-03-11T09:53:18.880Z,4.03
2023-03-11T09:55:56.514Z,3.38
2023-03-11T09:58:51.566Z,5.57
2023-03-11T10:01:37.521Z,2.78
2023-03-11T10:04:18.257Z,3.45
2023-03-11T10:06:50.294Z,4.00
2023-03-11T10:09:39.926Z,3.42
2023-03-11T10:12:20.249Z,4.32
2023-03-11T10:14:54.722Z,4.63
2023-03-11T10:17:58.807Z,2.90
2023-03-11T10:21:00.304Z,3.58
2023-03-11T10:23:57.956Z,4.60
2023-03-11T10:26:39.800Z,4.30
2023-03-11T10:29:25.813Z,3.38
2023-03-11T10:32:13.320Z,3.22
2023-03-11T10:34:53.632Z,3.72
2023-03-11T10:37:48.040Z,2.92
2023-03-11T10:40:28.200Z,4.20
2023-03-11T10:43:19.890Z,2.95
2023-03-11T10:45:53.355Z,3.63
2023-03-11T10:48:27.268Z,5.93
2023-03-11T10:51:11.860Z,4.00
2023-03-11T10:53:53.072Z,3.72
2023-03-11T10:56:38.662Z,4.22
2023-03-11T10:59:42.752Z,3.67
2023-03-11T11:02:31.701Z,4.85
2023-03-11T11:05:06.318Z,6.07
2023-03-11T11:07:42.152Z,4.80
2023-03-11T11:10:22.109Z,3.50
2023-03-11T11:12:59.475Z,3.70
2023-03-11T11:15:42.204Z,3.75
2023-03-11T11:18:22.329Z,4.53
2023-03-11T11:20:53.940Z,3.17
2023-03-11T11:23:30.950Z,4.18
2023-03-11T11:26:06.274Z,3.47
2023-03-11T11:28:38.027Z,4.55
2023-03-11T11:31:26.489Z,3.70
2023-03-11T11:33:58.297Z,4.50
2023-03-11T11:36:38.877Z,3.63
2023-03-11T11:39:17.397Z,3.50
2023-03-11T11:41:52.947Z,5.88
2023-03-11T11:44:33.832Z,4.35
2023-03-11T11:47:18.992Z,4.15
2023-03-11T11:49:58.564Z,3.90
2023-03-11T11:52:45.243Z,4.65
2023-03-11T11:55:29.630Z,4.50
2023-03-11T11:58:01.396Z,4.03
2023-03-11T12:01:03.441Z,4.30
2023-03-11T12:04:12.232Z,4.50
2023-03-11T12:07:14.394Z,4.95
2023-03-11T12:09:58.084Z,5.13
2023-03-11T12:12:46.256Z,6.25
2023-03-11T12:15:27.020Z,5.30
2023-03-11T12:18:07.073Z,4.50
2023-03-11T12:20:45.492Z,5.90
2023-03-11T12:23:20.205Z,3.88
2023-03-11T12:26:07.730Z,4.20
2023-03-11T12:29:17.985Z,4.63
2023-03-11T12:31:50.425Z,4.15
2023-03-11T12:34:24.913Z,7.07
2023-03-11T12:37:03.418Z,4.30
2023-03-11T12:39:35.636Z,7.95
2023-03-11T12:42:13.067Z,5.18
2023-03-11T12:44:45.979Z,6.53
2023-03-11T12:47:20.855Z,6.95
2023-03-11T12:52:30.060Z,7.47
2023-03-11T12:55:01.682Z,5.72
2023-03-11T12:57:53.019Z,5.22
2023-03-11T13:00:34.913Z,4.95
2023-03-11T13:03:15.853Z,4.10
2023-03-11T13:06:00.421Z,5.10
2023-03-11T13:08:45.615Z,5.50
2023-03-11T13:14:29.726Z,5.35
2023-03-11T13:17:20.247Z,4.78
2023-03-11T13:19:53.968Z,5.00
2023-03-11T13:22:57.556Z,5.82
2023-03-11T13:25:33.005Z,5.32
2023-03-11T13:28:47.298Z,5.85
2023-03-11T13:31:27.885Z,6.53
2023-03-11T13:34:37.182Z,7.10
2023-03-11T13:37:16.685Z,5.70
2023-03-11T13:40:05.783Z,5.75
2023-03-11T13:42:44.492Z,5.60
2023-03-11T13:45:37.028Z,8.27
2023-03-11T13:48:17.425Z,6.03
2023-03-11T13:51:06.879Z,9.05
2023-03-11T13:53:43.812Z,6.72
2023-03-11T13:56:32.840Z,6.68
2023-03-11T13:59:18.023Z,7.30
2023-03-11T14:01:58.095Z,5.03
2023-03-11T14:04:36.315Z,6.53
2023-03-11T14:07:20.136Z,8.02
2023-03-11T14:09:52.076Z,5.55
2023-03-11T14:12:23.775Z,6.82
2023-03-11T14:15:01.131Z,5.78
2023-03-11T14:17:32.947Z,6.25
2023-03-11T14:20:27.906Z,6.72
2023-03-11T14:22:59.711Z,7.93
2023-03-11T14:25:31.480Z,7.85
2023-03-11T14:28:04.899Z,5.80
2023-03-11T14:30:36.600Z,6.18
2023-03-11T14:33:22.913Z,6.32
2023-03-11T14:35:57.709Z,5.47
2023-03-11T14:41:07.074Z,5.70
2023-03-11T14:43:44.272Z,5.90
2023-03-11T14:46:22.361Z,5.70
2023-03-11T14:48:56.386Z,4.97
2023-03-11T14:51:33.864Z,5.18
2023-03-11T14:54:17.666Z,5.03
2023-03-11T14:57:10.516Z,5.63
2023-03-11T14:59:43.981Z,4.93
2023-03-11T15:02:34.730Z,5.25
2023-03-11T15:05:17.029Z,6.53
2023-03-11T15:07:51.660Z,4.93
2023-03-11T15:10:23.496Z,7.35
2023-03-11T15:13:15.762Z,5.18
2023-03-11T15:15:56.583Z,5.60
2023-03-11T15:18:42.570Z,6.28
2023-03-11T15:21:17.957Z,6.38
2023-03-11T15:23:51.366Z,5.75
2023-03-11T15:26:29.434Z,7.30
2023-03-11T15:29:11.611Z,6.85
2023-03-11T15:31:47.944Z,5.95
2023-03-11T15:34:32.587Z,5.28
2023-03-11T15:37:20.966Z,7.18
2023-03-11T15:39:53.301Z,6.95
2023-03-11T15:42:26.419Z,6.32
2023-03-11T15:45:03.292Z,7.57
2023-03-11T15:47:36.211Z,7.15
2023-03-11T15:50:24.951Z,7.72
2023-03-11T15:52:59.416Z,4.43
2023-03-11T15:55:31.185Z,5.50
2023-03-11T15:58:07.880Z,5.90
2023-03-11T16:00:42.926Z,5.35
2023-03-11T16:03:14.915Z,7.25
2023-03-11T16:05:47.159Z,6.72
2023-03-11T16:08:18.926Z,6.82
2023-03-11T16:10:50.697Z,4.82
2023-03-11T16:13:23.253Z,6.63
2023-03-11T16:15:55.171Z,5.97
2023-03-11T16:18:26.896Z,6.78
2023-03-11T16:20:58.597Z,5.95
2023-03-11T16:23:50.194Z,7.93
2023-03-11T16:26:23.151Z,5.63
2023-03-11T16:28:57.287Z,8.32
2023-03-11T16:31:31.426Z,6.57
2023-03-11T16:34:03.168Z,7.40
2023-03-11T16:36:34.971Z,8.60
2023-03-11T16:39:06.797Z,6.70
2023-03-11T16:41:44.464Z,9.05
2023-03-11T16:44:16.234Z,8.05
2023-03-11T16:46:47.954Z,6.93
2023-03-11T16:49:19.675Z,5.93
2023-03-11T16:51:51.381Z,5.95
2023-03-11T16:54:23.219Z,9.15
2023-03-11T16:56:54.954Z,7.50
2023-03-11T16:59:26.753Z,6.55
2023-03-11T17:01:59.488Z,7.50
2023-03-11T17:04:34.090Z,6.88
2023-03-11T17:07:07.313Z,8.88
2023-03-11T17:09:39.119Z,7.38
2023-03-11T17:12:13.429Z,9.20
2023-03-11T17:14:46.414Z,7.18
2023-03-11T17:17:19.195Z,8.10
2023-03-11T17:19:50.962Z,8.80
2023-03-11T17:22:22.766Z,7.25
2023-03-11T17:24:54.631Z,8.43
2023-03-11T17:27:32.094Z,7.22
2023-03-11T17:30:06.216Z,7.45
2023-03-11T17:32:38.081Z,10.68
2023-03-11T17:35:10.160Z,7.38
2023-03-11T17:37:41.834Z,9.50
2023-03-11T17:40:13.717Z,6.63
2023-03-11T17:42:45.488Z,7.05
2023-03-11T17:45:17.317Z,7.53
2023-03-11T17:47:49.165Z,7.05
2023-03-11T17:50:21.841Z,12.95
2023-03-11T17:52:53.658Z,7.55
2023-03-11T17:55:26.309Z,7.95
2023-03-11T17:57:58.400Z,7.88
2023-03-11T18:00:30.215Z,7.75
2023-03-11T18:03:01.904Z,8.18
2023-03-11T18:05:36.865Z,10.77
2023-03-11T18:08:08.607Z,7.32
2023-03-11T18:10:40.336Z,10.15
2023-03-11T18:13:12.002Z,7.88
2023-03-11T18:15:43.773Z,7.85
2023-03-11T18:18:15.607Z,7.60
2023-03-11T18:20:47.356Z,8.30
2023-03-11T18:23:19.186Z,7.65
2023-03-11T18:25:52.151Z,8.32
2023-03-11T18:28:23.914Z,8.68
2023-03-11T18:30:55.936Z,6.75
2023-03-11T18:33:30.722Z,7.85
2023-03-11T18:38:48.926Z,8.18
2023-03-11T18:41:21.325Z,8.70
2023-03-11T18:43:54.922Z,7.22
2023-03-11T18:46:29.247Z,8.43
2023-03-11T18:49:03.520Z,6.97
2023-03-11T18:51:35.313Z,8.90
2023-03-11T18:54:07.204Z,9.88
2023-03-11T18:56:38.986Z,8.23
2023-03-11T18:59:12.171Z,9.70
2023-03-11T19:01:44.081Z,8.15
2023-03-11T19:04:15.925Z,10.05
2023-03-11T19:06:49.899Z,8.02
2023-03-11T19:09:21.731Z,9.60
2023-03-11T19:11:53.668Z,8.82
2023-03-11T19:14:25.589Z,9.25
2023-03-11T19:16:57.539Z,9.07
2023-03-11T19:19:31.525Z,9.40
2023-03-11T19:22:03.291Z,7.80
2023-03-11T19:24:35.021Z,9.52
2023-03-11T19:27:06.728Z,9.85
2023-03-11T19:29:38.522Z,10.43
2023-03-11T19:32:10.418Z,8.98
2023-03-11T19:34:42.237Z,8.77
2023-03-11T19:37:13.988Z,9.93
2023-03-11T19:39:45.972Z,8.27
2023-03-11T19:42:17.762Z,12.98
2023-03-11T19:44:50.188Z,10.90
2023-03-11T19:47:23.732Z,10.40
2023-03-11T19:49:55.445Z,10.10
2023-03-11T19:52:27.241Z,8.30
2023-03-11T19:54:59.114Z,11.32
2023-03-11T19:57:30.946Z,10.57
2023-03-11T20:00:02.861Z,11.90
2023-03-11T20:02:56.677Z,9.68
2023-03-11T20:05:29.099Z,10.70
2023-03-11T20:08:00.846Z,13.05
2023-03-11T20:10:41.811Z,9.45
2023-03-11T20:13:15.181Z,13.23
2023-03-11T20:15:47.185Z,11.10
2023-03-11T20:18:19.066Z,10.68
2023-03-11T20:20:50.914Z,10.65
2023-03-11T20:23:24.828Z,9.97
2023-03-11T20:25:56.556Z,9.20
2023-03-11T20:28:28.395Z,10.57
2023-03-11T20:31:06.405Z,12.98
2023-03-11T20:33:38.790Z,8.88
2023-03-11T20:36:14.147Z,14.00
2023-03-11T20:38:47.677Z,11.30
2023-03-11T20:41:20.033Z,11.48
2023-03-11T20:43:53.170Z,10.73
2023-03-11T20:46:25.255Z,10.35
2023-03-11T20:48:57.826Z,13.65
2023-03-11T20:51:30.152Z,12.60
2023-03-11T20:54:04.666Z,14.07
2023-03-11T20:56:36.623Z,14.65
2023-03-11T20:59:09.819Z,9.95
2023-03-11T21:01:41.697Z,10.55
2023-03-11T21:04:16.261Z,13.77
2023-03-11T21:06:52.571Z,12.15
2023-03-11T21:09:24.759Z,11.30
2023-03-11T21:11:59.365Z,11.90
2023-03-11T21:14:31.169Z,13.18
2023-03-11T21:17:03.145Z,13.40
2023-03-11T21:19:35.148Z,13.57
2023-03-11T21:22:06.928Z,13.13
2023-03-11T21:24:38.752Z,13.68
2023-03-11T21:27:11.352Z,14.38
2023-03-11T21:29:43.947Z,15.02
2023-03-11T21:32:15.780Z,14.00
2023-03-11T21:34:47.702Z,14.70
2023-03-11T21:37:21.526Z,13.98
2023-03-11T21:39:53.760Z,13.10
2023-03-11T21:42:29.854Z,13.57
2023-03-11T21:45:01.927Z,14.30
2023-03-11T21:47:33.681Z,16.02
2023-03-11T21:50:06.880Z,15.98
2023-03-11T21:52:38.663Z,14.48
2023-03-11T21:55:10.771Z,15.43
2023-03-11T21:57:42.514Z,14.90
2023-03-11T22:00:14.879Z,13.85
2023-03-11T22:02:50.025Z,14.15
2023-03-11T22:05:21.830Z,12.63
2023-03-11T22:07:55.481Z,12.32
2023-03-11T22:10:29.347Z,15.43
2023-03-11T22:13:01.224Z,11.95
2023-03-11T22:15:33.475Z,16.35
2023-03-11T22:18:05.353Z,16.02
2023-03-11T22:20:39.659Z,16.52
2023-03-11T22:23:11.807Z,10.32
2023-03-11T22:25:43.831Z,14.63
2023-03-11T22:28:15.745Z,13.50
2023-03-11T22:30:47.555Z,15.52
2023-03-11T22:33:20.400Z,15.25
2023-03-11T22:35:57.215Z,17.55
2023-03-11T22:38:30.817Z,15.02
2023-03-11T22:41:07.675Z,14.40
2023-03-11T22:43:40.032Z,18.75
2023-03-11T22:46:11.852Z,14.82
2023-03-11T22:48:43.572Z,14.23
2023-03-11T22:51:15.550Z,15.23
2023-03-11T22:53:47.635Z,14.30
2023-03-11T22:56:20.088Z,17.15
2023-03-11T22:58:51.841Z,19.92
2023-03-11T23:01:23.645Z,16.10
2023-03-11T23:03:55.491Z,15.48
2023-03-11T23:06:27.583Z,15.52
2023-03-11T23:08:59.482Z,17.83
2023-03-11T23:11:31.459Z,18.40
2023-03-11T23:14:03.238Z,18.35
2023-03-11T23:16:35.052Z,19.35
2023-03-11T23:19:07.227Z,18.45
2023-03-11T23:21:39.678Z,19.17
2023-03-11T23:24:11.380Z,17.35
2023-03-11T23:26:43.124Z,19.90
2023-03-11T23:29:14.837Z,19.20
2023-03-11T23:31:46.551Z,19.40
2023-03-11T23:34:18.271Z,19.33
2023-03-11T23:36:50.548Z,18.67
2023-03-11T23:39:22.253Z,18.15
2023-03-11T23:41:54.248Z,18.40
2023-03-11T23:44:26.832Z,14.77
2023-03-11T23:46:58.645Z,20.02
2023-03-11T23:49:31.844Z,21.92
2023-03-11T23:52:05.372Z,16.25
2023-03-11T23:54:37.131Z,16.52
2023-03-11T23:57:10.283Z,19.27
2023-03-11T23:59:45.525Z,16.02
